CST,Max TemperatureF,Mean TemperatureF,Min TemperatureF,Max Dew PointF,MeanDew PointF,Min DewpointF,Max Humidity, Mean Humidity, Min Humidity, Max Sea Level PressureIn, Mean Sea Level PressureIn, Min Sea Level PressureIn, Max VisibilityMiles, Mean VisibilityMiles, Min VisibilityMiles, Max Wind SpeedMPH, Mean Wind SpeedMPH, Max Gust SpeedMPH,PrecipitationIn, CloudCover, Events, WindDirDegrees
2013-11-1,80,70,61,68,64,59,100,82,55,30.05,29.98,29.76,12,7,1,13,5,,0.39,4,Fog-Rain-Thunderstorm,126
2013-11-2,78,70,63,68,65,61,100,85,61,30.10,30.01,29.85,12,8,6,18,5,,0.00,4,Fog,263
2013-11-3,84,73,62,68,64,34,100,84,30,30.10,30.01,29.81,12,7,1,16,5,,0.01,6,Fog-Rain,257
2013-11-4,79,70,61,68,64,34,100,81,34,30.06,29.97,29.81,12,6,1,13,5,,0.00,5,Fog-Rain,252
2013-11-5,82,72,63,68,63,57,94,74,47,30.03,29.95,29.79,12,8,6,14,8,,0.04,4,,131
2013-11-6,81,72,64,70,67,63,100,84,55,30.05,29.96,29.79,12,6,1,46,7,,0.00,5,Fog-Rain,246
2013-11-7,80,73,66,70,67,54,100,87,42,30.05,29.97,29.78,12,5,0,16,5,,0.20,5,Fog-Rain-Thunderstorm,231
2013-11-8,81,72,63,72,67,62,100,89,52,30.04,29.92,29.75,12,6,1,16,5,,0.83,6,Fog-Rain-Thunderstorm,266
2013-11-9,79,70,62,68,66,63,100,87,60,30.04,29.94,29.79,12,6,0,13,4,,0.43,5,Fog-Rain,93
2013-11-10,81,72,64,70,65,61,100,81,59,30.02,29.93,29.78,12,8,6,10,6,,0.00,5,,104
2013-11-11,83,74,64,70,62,36,100,71,27,30.02,29.92,29.78,12,7,2,12,8,,0.00,6,Fog-Rain,74
2013-11-12,82,74,67,64,62,61,88,68,51,29.99,29.90,29.73,12,8,6,18,8,26,0.00,5,,101
2013-11-13,86,77,66,68,63,61,100,71,38,30.00,29.90,29.75,12,7,3,21,8,18,0.16,5,Fog-Rain,92
2013-11-14,81,72,62,72,63,36,100,79,30,30.02,29.94,29.82,12,7,2,12,5,,0.43,6,Rain-Thunderstorm,91
2013-11-15,84,74,63,70,66,63,100,83,46,30.01,29.92,29.78,12,6,0,12,5,,0.83,6,Fog-Rain-Thunderstorm,66
2013-11-16,82,74,66,64,63,62,83,69,51,30.02,29.92,29.76,12,8,6,12,6,23,0.00,6,,82
2013-11-17,85,77,68,72,64,59,100,70,32,30.03,29.93,29.72,12,7,2,15,8,,0.00,5,Fog,100
2013-11-18,84,74,64,70,62,58,94,69,34,30.02,29.93,29.78,12,8,6,20,8,21,0.00,6,,77
2013-11-19,82,73,64,70,62,57,100,72,35,30.01,29.92,29.75,12,7,5,13,5,,0.00,5,Fog,97
2013-11-20,81,70,59,70,63,55,100,78,40,30.06,29.98,29.82,12,7,5,13,6,,0.04,5,Fog-Rain,226
2013-11-21,81,72,62,73,65,59,100,83,57,30.07,30.00,29.84,12,6,1,10,4,,0.00,4,Fog,233
2013-11-22,82,72,63,70,64,59,100,78,46,30.05,29.96,29.79,12,8,5,17,6,,0.00,4,Fog,134
2013-11-23,86,75,64,70,62,36,100,73,27,30.01,29.93,29.79,12,8,4,17,6,21,0.04,5,Fog-Rain,102
2013-11-24,82,74,65,68,63,59,94,70,45,30.05,29.96,29.80,12,8,6,10,7,,0.01,4,Rain,112
2013-11-25,82,74,65,71,64,36,100,78,28,30.04,29.96,29.81,12,8,1,12,7,,0.00,5,Fog-Rain,98
2013-11-26,80,70,61,70,65,59,100,83,53,30.03,29.96,29.81,12,8,6,13,4,,0.28,4,Fog-Rain,243
2013-11-27,82,72,63,70,63,57,100,75,46,30.04,29.94,29.77,12,8,6,15,6,23,0.08,4,Rain,87
2013-11-28,71,68,66,68,63,57,100,79,62,30.06,29.96,29.82,12,8,6,17,5,24,0.55,6,Rain,91
2013-11-29,79,73,67,61,59,57,78,61,39,30.06,29.97,29.82,12,8,6,18,11,31,0.00,5,Rain,87
2013-11-30,80,73,66,63,59,54,73,61,36,30.04,29.95,29.78,12,8,6,20,13,28,0.00,3,,90